TimeCDT,TemperatureF,Dew PointF,Humidity,Sea Level PressureIn,VisibilityMPH,Wind Direction,Wind SpeedMPH,Gust SpeedMPH,PrecipitationIn,Events,Conditions,WindDirDegrees,DateUTC
12:15 AM,61.3,35.2,38,30.17,10.0,SSW,15.0,-,N/A,,Clear,200,2013-03-15 05:15:00
12:35 AM,60.8,35.6,39,30.17,10.0,SSW,13.8,-,N/A,,Clear,200,2013-03-15 05:35:00
12:55 AM,60.3,35.6,40,30.17,10.0,SSW,13.8,-,N/A,,Clear,210,2013-03-15 05:55:00
1:15 AM,60.1,35.6,40,30.17,10.0,SSW,15.0,21.9,N/A,,Clear,200,2013-03-15 06:15:00
1:35 AM,59.5,35.4,41,30.17,10.0,SSW,15.0,-,N/A,,Clear,200,2013-03-15 06:35:00
2:15 AM,58.8,35.6,42,30.16,10.0,SSW,16.1,20.7,N/A,,Clear,200,2013-03-15 07:15:00
2:35 AM,58.5,35.6,42,30.16,10.0,SSW,16.1,-,N/A,,Clear,210,2013-03-15 07:35:00
2:55 AM,58.1,35.6,43,30.16,10.0,SSW,13.8,-,N/A,,Clear,210,2013-03-15 07:55:00
3:15 AM,57.2,35.6,44,30.15,10.0,SSW,12.7,-,N/A,,Clear,210,2013-03-15 08:15:00
3:35 AM,56.7,35.8,46,30.14,10.0,SSW,12.7,-,N/A,,Clear,210,2013-03-15 08:35:00
3:55 AM,55.8,35.8,47,30.14,10.0,SSW,12.7,-,N/A,,Clear,210,2013-03-15 08:55:00
4:15 AM,55.4,35.6,47,30.14,10.0,SSW,10.4,-,N/A,,Clear,210,2013-03-15 09:15:00
4:35 AM,54.9,35.6,48,30.13,10.0,SSW,11.5,-,N/A,,Clear,210,2013-03-15 09:35:00
4:55 AM,54.5,35.4,49,30.12,10.0,SSW,12.7,17.3,N/A,,Clear,210,2013-03-15 09:55:00
5:15 AM,53.6,35.1,50,30.12,10.0,SW,10.4,-,N/A,,Clear,220,2013-03-15 10:15:00
5:35 AM,53.6,35.1,50,30.12,10.0,SSW,10.4,-,N/A,,Clear,210,2013-03-15 10:35:00
5:55 AM,52.7,34.7,50,30.12,10.0,SSW,9.2,-,N/A,,Clear,210,2013-03-15 10:55:00
6:15 AM,52.9,34.9,50,30.12,10.0,SSW,10.4,-,N/A,,Clear,210,2013-03-15 11:15:00
6:35 AM,52.5,34.5,50,30.12,10.0,SSW,10.4,16.1,N/A,,Clear,210,2013-03-15 11:35:00
6:55 AM,52.7,34.2,49,30.12,10.0,SSW,11.5,-,N/A,,Clear,210,2013-03-15 11:55:00
7:15 AM,52.7,34.0,49,30.12,10.0,SSW,13.8,-,N/A,,Clear,210,2013-03-15 12:15:00
7:35 AM,52.3,34.0,50,30.12,10.0,SW,11.5,-,N/A,,Clear,220,2013-03-15 12:35:00
7:55 AM,51.4,33.8,51,30.12,10.0,SW,10.4,-,N/A,,Clear,220,2013-03-15 12:55:00
8:15 AM,51.1,33.8,52,30.12,10.0,SW,10.4,-,N/A,,Clear,230,2013-03-15 13:15:00
8:35 AM,52.0,33.8,50,30.12,10.0,SW,10.4,-,N/A,,Clear,220,2013-03-15 13:35:00
8:55 AM,53.6,34.0,47,30.12,10.0,SW,11.5,-,N/A,,Clear,220,2013-03-15 13:55:00
9:15 AM,55.6,34.2,44,30.12,10.0,SW,11.5,-,N/A,,Clear,220,2013-03-15 14:15:00
9:35 AM,58.6,34.2,40,30.12,10.0,SW,10.4,-,N/A,,Clear,220,2013-03-15 14:35:00
10:55 AM,70.9,29.7,22,30.10,10.0,SW,10.4,-,N/A,,Clear,230,2013-03-15 15:55:00
11:15 AM,74.1,26.4,17,30.10,10.0,WSW,9.2,-,N/A,,Clear,250,2013-03-15 16:15:00
11:35 AM,76.1,22.8,14,30.10,10.0,SW,12.7,17.3,N/A,,Clear,230,2013-03-15 16:35:00
11:55 AM,76.6,22.8,13,30.10,10.0,WSW,10.4,18.4,N/A,,Clear,240,2013-03-15 16:55:00
12:15 PM,78.1,21.6,12,30.09,10.0,SW,12.7,-,N/A,,Clear,220,2013-03-15 17:15:00
12:55 PM,80.1,19.2,10,30.07,10.0,North,-9999.0,-,N/A,,Clear,0,2013-03-15 17:55:00
1:15 PM,81.7,19.2,10,30.06,10.0,WSW,12.7,19.6,N/A,,Clear,240,2013-03-15 18:15:00
1:35 PM,82.9,18.5,9,30.05,10.0,SW,12.7,19.6,N/A,,Clear,230,2013-03-15 18:35:00
1:55 PM,83.7,17.4,9,30.03,10.0,SW,17.3,-,N/A,,Clear,220,2013-03-15 18:55:00
2:15 PM,84.0,17.4,8,30.02,10.0,WSW,11.5,17.3,N/A,,Clear,240,2013-03-15 19:15:00
2:35 PM,84.6,17.6,8,30.01,10.0,West,13.8,-,N/A,,Clear,270,2013-03-15 19:35:00
2:55 PM,85.5,19.2,9,29.99,10.0,WSW,13.8,19.6,N/A,,Clear,250,2013-03-15 19:55:00
3:15 PM,84.7,18.0,8,29.98,10.0,WSW,15.0,24.2,N/A,,Clear,250,2013-03-15 20:15:00
3:35 PM,85.5,17.6,8,29.97,10.0,West,15.0,20.7,N/A,,Clear,260,2013-03-15 20:35:00
3:55 PM,85.5,17.6,8,29.96,10.0,West,15.0,21.9,N/A,,Clear,260,2013-03-15 20:55:00
4:15 PM,86.5,17.8,8,29.95,10.0,SW,17.3,23.0,N/A,,Clear,220,2013-03-15 21:15:00
4:35 PM,86.4,17.8,8,29.95,10.0,West,12.7,-,N/A,,Clear,260,2013-03-15 21:35:00
4:55 PM,86.0,16.7,8,29.94,10.0,West,12.7,18.4,N/A,,Clear,260,2013-03-15 21:55:00
5:15 PM,85.5,16.5,8,29.93,10.0,WSW,9.2,-,N/A,,Clear,240,2013-03-15 22:15:00
5:35 PM,85.8,15.6,7,29.93,10.0,WSW,15.0,18.4,N/A,,Clear,250,2013-03-15 22:35:00
5:55 PM,86.0,15.6,7,29.92,10.0,West,11.5,18.4,N/A,,Clear,260,2013-03-15 22:55:00
6:15 PM,85.8,15.4,7,29.91,10.0,SW,13.8,21.9,N/A,,Clear,220,2013-03-15 23:15:00
6:35 PM,85.1,16.2,8,29.91,10.0,SW,11.5,16.1,N/A,,Clear,230,2013-03-15 23:35:00
6:55 PM,84.6,16.3,8,29.91,10.0,SW,9.2,-,N/A,,Clear,230,2013-03-15 23:55:00
7:15 PM,83.5,15.6,8,29.91,10.0,SW,9.2,12.7,N/A,,Clear,230,2013-03-16 00:15:00
7:35 PM,82.0,15.4,8,29.91,10.0,SW,11.5,17.3,N/A,,Clear,230,2013-03-16 00:35:00
7:55 PM,79.0,15.6,9,29.90,10.0,SW,9.2,-,N/A,,Clear,220,2013-03-16 00:55:00
8:15 PM,76.6,16.3,10,29.91,10.0,SSW,9.2,-,N/A,,Clear,210,2013-03-16 01:15:00
8:35 PM,73.9,17.2,12,29.91,10.0,SSW,10.4,-,N/A,,Clear,200,2013-03-16 01:35:00
8:55 PM,73.2,17.4,12,29.91,10.0,SSW,10.4,-,N/A,,Clear,200,2013-03-16 01:55:00
9:15 PM,72.3,17.6,13,29.91,10.0,SSW,11.5,-,N/A,,Clear,200,2013-03-16 02:15:00
9:35 PM,71.2,20.3,15,29.91,10.0,South,17.3,23.0,N/A,,Clear,190,2013-03-16 02:35:00
9:55 PM,69.3,25.2,19,29.91,10.0,SSW,15.0,18.4,N/A,,Clear,200,2013-03-16 02:55:00
10:15 PM,68.7,27.9,22,29.91,10.0,SSW,13.8,20.7,N/A,,Clear,200,2013-03-16 03:15:00
10:35 PM,68.2,30.2,24,29.91,10.0,SSW,17.3,21.9,N/A,,Clear,200,2013-03-16 03:35:00
10:55 PM,67.5,32.0,27,29.91,10.0,SSW,17.3,26.5,N/A,,Clear,200,2013-03-16 03:55:00
11:15 PM,66.7,34.3,30,29.91,10.0,SSW,18.4,24.2,N/A,,Clear,200,2013-03-16 04:15:00
11:35 PM,66.4,36.1,33,29.91,10.0,SSW,20.7,26.5,N/A,,Clear,200,2013-03-16 04:35:00
11:55 PM,65.8,37.0,35,29.90,10.0,SSW,19.6,29.9,N/A,,Clear,200,2013-03-16 04:55:00